Fertile, Iowa
Current Conditions -  °F | °C
As of 6:53 PM on Friday 24 Oct 2014 (Local Time) from KMCW Reporting Station
Clear Clear  
Wind Chill: 57°   Ceiling: Unl
Heat Index: 57°   Visibility: 10mi
Dew Point: 54°   Wind: 0mph
Humidity: 89%   Direction: NA
Pressure: 29.92"   Gusts: NA
Location:  43.26°N, 93.42°W
Report Text: KMCW 242353Z AUTO 00000KT 10SM CLR 14/12 A2992 RMK AO2 SLP128 T01390122 10200 20133 53012
Loading
Personal Weather Stations






























Interactive Weather Map
Tropical Storm Tracking
New forecast layout! Learn more

10-Day Weather Forecast

Advertisements
Track Severe Weather on mobile